createdAt,value
2019-05-21T00:01:40.859Z,15.92
2019-05-21T00:06:45.039Z,15.96
2019-05-21T00:11:49.246Z,15.88
2019-05-21T00:16:53.467Z,15.86
2019-05-21T00:21:57.664Z,15.79
2019-05-21T00:27:01.848Z,15.72
2019-05-21T00:32:42.266Z,15.71
2019-05-21T00:38:22.070Z,15.66
2019-05-21T00:43:43.094Z,15.64
2019-05-21T00:48:47.311Z,15.60
2019-05-21T00:53:51.513Z,15.56
2019-05-21T00:58:55.721Z,15.57
2019-05-21T01:03:59.930Z,15.55
2019-05-21T01:09:05.685Z,15.53
2019-05-21T01:14:09.879Z,15.52
2019-05-21T01:19:14.087Z,15.42
2019-05-21T01:24:18.310Z,15.46
2019-05-21T01:29:22.517Z,15.39
2019-05-21T01:34:26.759Z,15.35
2019-05-21T01:39:30.938Z,15.35
2019-05-21T01:44:35.160Z,15.29
2019-05-21T01:49:39.354Z,15.25
2019-05-21T01:54:43.586Z,15.15
2019-05-21T01:59:47.781Z,15.16
2019-05-21T02:04:51.981Z,15.12
2019-05-21T02:09:59.261Z,15.08
2019-05-21T02:15:03.465Z,15.03
2019-05-21T02:20:07.844Z,14.96
2019-05-21T02:25:12.266Z,14.92
2019-05-21T02:30:17.162Z,14.86
2019-05-21T02:35:21.380Z,14.81
2019-05-21T02:40:25.549Z,14.79
2019-05-21T02:45:29.742Z,14.77
2019-05-21T02:50:33.929Z,14.70
2019-05-21T02:55:38.120Z,14.71
2019-05-21T03:01:07.311Z,14.67
2019-05-21T03:06:14.484Z,14.67
2019-05-21T03:11:17.522Z,14.62
2019-05-21T03:16:21.818Z,14.60
2019-05-21T03:21:26.033Z,14.59
2019-05-21T03:26:30.240Z,14.56
2019-05-21T03:31:34.480Z,14.47
2019-05-21T03:36:38.636Z,14.46
2019-05-21T03:41:42.822Z,14.49
2019-05-21T03:46:47.135Z,14.48
2019-05-21T03:51:51.309Z,14.46
2019-05-21T03:56:55.492Z,14.47
2019-05-21T04:01:59.692Z,14.52
2019-05-21T04:07:03.876Z,14.57
2019-05-21T04:12:08.144Z,14.57
2019-05-21T04:17:23.160Z,14.60
2019-05-21T04:22:27.323Z,14.65
2019-05-21T04:27:31.512Z,14.82
2019-05-21T04:32:35.715Z,14.88
2019-05-21T04:37:39.915Z,14.96
2019-05-21T04:42:44.121Z,15.05
2019-05-21T04:47:48.310Z,15.17
2019-05-21T04:52:52.569Z,15.35
2019-05-21T04:57:56.766Z,15.40
2019-05-21T05:03:00.966Z,15.57
2019-05-21T05:08:05.193Z,15.62
2019-05-21T05:13:09.404Z,15.74
2019-05-21T05:18:13.608Z,15.85
2019-05-21T05:23:17.861Z,15.96
2019-05-21T05:28:22.127Z,16.14
2019-05-21T05:33:26.365Z,16.27
2019-05-21T05:38:30.566Z,16.50
2019-05-21T05:43:34.783Z,16.64
2019-05-21T05:48:45.578Z,16.79
2019-05-21T05:53:59.019Z,16.97
2019-05-21T05:59:03.232Z,17.10
2019-05-21T06:04:07.473Z,17.25
2019-05-21T06:09:11.675Z,17.43
2019-05-21T06:14:15.887Z,17.54
2019-05-21T06:19:20.089Z,17.74
2019-05-21T06:24:24.292Z,17.81
2019-05-21T06:29:28.531Z,17.89
2019-05-21T06:34:32.747Z,18.15
2019-05-21T06:39:36.941Z,18.35
2019-05-21T06:44:41.129Z,18.52
2019-05-21T06:49:45.337Z,18.64
2019-05-21T06:54:49.513Z,18.73
2019-05-21T06:59:53.699Z,18.89
2019-05-21T07:04:57.932Z,18.96
2019-05-21T07:10:02.169Z,19.10
2019-05-21T07:15:06.846Z,19.33
2019-05-21T07:20:12.481Z,19.37
2019-05-21T07:25:17.520Z,19.26
2019-05-21T07:30:21.959Z,19.51
2019-05-21T07:35:26.192Z,19.71
2019-05-21T07:40:30.436Z,19.88
2019-05-21T07:45:34.669Z,19.94
2019-05-21T07:50:38.922Z,20.23
2019-05-21T07:55:43.167Z,20.32
2019-05-21T08:00:47.401Z,20.39
2019-05-21T08:05:51.675Z,20.25
2019-05-21T08:10:55.960Z,20.26
2019-05-21T08:16:00.364Z,19.96
2019-05-21T08:21:04.633Z,20.24
2019-05-21T08:26:08.931Z,20.49
2019-05-21T08:31:13.175Z,20.68
2019-05-21T08:36:17.411Z,20.80
2019-05-21T08:41:21.745Z,20.30
2019-05-21T08:46:25.961Z,20.30
2019-05-21T08:51:30.313Z,20.36
2019-05-21T08:56:34.537Z,20.28
2019-05-21T09:01:38.764Z,20.31
2019-05-21T09:06:42.992Z,20.61
2019-05-21T09:11:47.373Z,20.79
2019-05-21T09:16:51.608Z,21.03
2019-05-21T09:21:55.912Z,21.03
2019-05-21T09:27:00.147Z,20.94
2019-05-21T09:32:04.376Z,20.96
2019-05-21T09:37:19.089Z,21.27
2019-05-21T09:42:14.577Z,21.26
2019-05-21T09:47:18.824Z,20.95
2019-05-21T09:52:23.052Z,21.27
2019-05-21T09:57:34.506Z,21.57
2019-05-21T10:02:38.741Z,21.51
2019-05-21T10:07:43.148Z,21.50
2019-05-21T10:12:47.578Z,21.64
2019-05-21T10:17:51.853Z,21.60
2019-05-21T10:22:56.279Z,21.52
2019-05-21T10:28:00.527Z,21.54
2019-05-21T10:33:04.769Z,21.90
2019-05-21T10:38:09.004Z,22.71
2019-05-21T10:43:13.241Z,23.46
2019-05-21T10:48:17.598Z,23.60
2019-05-21T10:53:21.828Z,24.66
2019-05-21T10:58:26.062Z,25.49
2019-05-21T11:03:52.376Z,24.75
2019-05-21T11:08:56.664Z,23.93
2019-05-21T11:14:00.914Z,24.03
2019-05-21T11:19:05.144Z,24.49
2019-05-21T11:24:09.397Z,24.23
2019-05-21T11:29:13.633Z,25.70
2019-05-21T11:34:17.844Z,25.60
2019-05-21T11:39:22.086Z,24.94
2019-05-21T11:44:26.324Z,24.99
2019-05-21T11:49:30.607Z,26.18
2019-05-21T11:54:34.837Z,26.64
2019-05-21T11:59:40.195Z,27.67
2019-05-21T12:04:44.475Z,26.50
2019-05-21T12:09:48.712Z,27.68
2019-05-21T12:14:52.954Z,26.14
2019-05-21T12:19:57.189Z,25.14
2019-05-21T12:25:01.444Z,25.38
2019-05-21T12:30:07.028Z,25.17
2019-05-21T12:35:11.511Z,24.23
2019-05-21T12:40:16.869Z,24.34
2019-05-21T12:45:21.111Z,24.19
2019-05-21T12:50:25.945Z,24.33
2019-05-21T12:55:30.169Z,24.44
2019-05-21T13:00:35.404Z,23.82
2019-05-21T13:05:39.659Z,23.76
2019-05-21T13:10:44.374Z,23.89
2019-05-21T13:15:48.615Z,23.79
2019-05-21T13:20:52.847Z,24.72
2019-05-21T13:25:57.203Z,25.38
2019-05-21T13:31:01.429Z,25.69
2019-05-21T13:36:05.892Z,25.86
2019-05-21T13:41:10.418Z,26.13
2019-05-21T13:46:14.698Z,25.85
2019-05-21T13:51:19.066Z,24.91
2019-05-21T13:56:23.377Z,24.83
2019-05-21T14:01:40.246Z,25.29
2019-05-21T14:06:33.579Z,25.33
2019-05-21T14:11:38.026Z,25.30
2019-05-21T14:16:42.252Z,25.16
2019-05-21T14:21:46.490Z,24.63
2019-05-21T14:26:50.721Z,24.34
2019-05-21T14:31:54.969Z,27.10
2019-05-21T14:36:59.229Z,26.43
2019-05-21T14:42:03.480Z,26.47
2019-05-21T14:47:07.713Z,28.30
2019-05-21T14:52:11.993Z,28.93
2019-05-21T14:57:16.268Z,28.69
2019-05-21T15:02:20.467Z,28.76
2019-05-21T15:07:24.702Z,28.12
2019-05-21T15:12:28.978Z,28.28
2019-05-21T15:17:33.218Z,29.24
2019-05-21T15:22:37.456Z,27.51
2019-05-21T15:27:41.694Z,25.62
2019-05-21T15:32:45.960Z,24.89
2019-05-21T15:37:50.202Z,25.25
2019-05-21T15:42:54.434Z,27.13
2019-05-21T15:47:58.754Z,26.42
2019-05-21T15:53:02.993Z,25.79
2019-05-21T15:58:07.229Z,26.22
2019-05-21T16:03:11.475Z,27.70
2019-05-21T16:08:15.713Z,27.58
2019-05-21T16:13:19.988Z,28.54
2019-05-21T16:18:24.314Z,28.27
2019-05-21T16:23:28.537Z,27.73
2019-05-21T16:28:32.754Z,27.91
2019-05-21T16:33:37.071Z,28.11
2019-05-21T16:38:41.299Z,26.36
2019-05-21T16:43:45.565Z,24.81
2019-05-21T16:48:49.839Z,24.51
2019-05-21T16:53:54.085Z,24.28
2019-05-21T16:58:59.239Z,23.99
2019-05-21T17:04:03.494Z,23.74
2019-05-21T17:09:11.013Z,23.68
2019-05-21T17:14:15.253Z,23.51
2019-05-21T17:19:19.770Z,23.10
2019-05-21T17:24:24.013Z,23.31
2019-05-21T17:29:28.309Z,23.22
2019-05-21T17:34:32.524Z,23.14
2019-05-21T17:39:36.827Z,23.10
2019-05-21T17:44:41.063Z,23.18
2019-05-21T17:49:46.481Z,22.93
2019-05-21T17:54:56.806Z,22.73
2019-05-21T17:59:56.727Z,22.43
2019-05-21T18:05:00.977Z,22.40
2019-05-21T18:10:06.158Z,22.35
2019-05-21T18:15:11.520Z,22.25
2019-05-21T18:20:18.161Z,21.83
2019-05-21T18:25:23.506Z,21.92
2019-05-21T18:30:28.018Z,21.76
2019-05-21T18:35:32.272Z,21.66
2019-05-21T18:40:36.760Z,21.64
2019-05-21T18:45:41.010Z,21.69
2019-05-21T18:50:45.284Z,21.69
2019-05-21T18:55:49.706Z,21.51
2019-05-21T19:00:53.958Z,21.35
2019-05-21T19:05:58.998Z,21.21
2019-05-21T19:11:03.296Z,21.04
2019-05-21T19:16:07.555Z,20.80
2019-05-21T19:21:11.864Z,20.94
2019-05-21T19:26:16.155Z,20.85
2019-05-21T19:31:20.439Z,20.96
2019-05-21T19:36:24.956Z,21.10
2019-05-21T19:41:29.210Z,21.24
2019-05-21T19:46:33.581Z,21.17
2019-05-21T19:51:37.868Z,21.17
2019-05-21T19:56:42.379Z,21.12
2019-05-21T20:01:46.873Z,21.02
2019-05-21T20:06:51.351Z,20.80
2019-05-21T20:11:55.650Z,20.64
2019-05-21T20:17:00.024Z,20.86
2019-05-21T20:22:04.612Z,20.56
2019-05-21T20:27:09.839Z,19.72
2019-05-21T20:32:16.600Z,19.49
2019-05-21T20:37:26.413Z,19.27
2019-05-21T20:42:30.797Z,18.91
2019-05-21T20:47:35.477Z,18.23
2019-05-21T20:52:42.142Z,18.27
2019-05-21T20:57:46.981Z,17.41
2019-05-21T21:02:52.683Z,16.60
2019-05-21T21:07:57.333Z,16.40
2019-05-21T21:13:03.463Z,16.41
2019-05-21T21:18:07.704Z,16.47
2019-05-21T21:23:12.201Z,16.68
2019-05-21T21:28:16.729Z,16.66
2019-05-21T21:33:20.978Z,16.81
2019-05-21T21:38:27.530Z,16.58
2019-05-21T21:43:31.789Z,16.40
2019-05-21T21:48:36.421Z,16.43
2019-05-21T21:53:40.787Z,16.68
2019-05-21T21:58:45.042Z,16.43
2019-05-21T22:03:49.891Z,16.75
2019-05-21T22:08:55.229Z,17.10
2019-05-21T22:14:00.038Z,16.81
2019-05-21T22:19:04.678Z,16.70
2019-05-21T22:24:10.016Z,16.74
2019-05-21T22:29:14.477Z,17.03
2019-05-21T22:34:19.102Z,16.88
2019-05-21T22:39:29.777Z,16.91
2019-05-21T22:44:34.596Z,16.74
2019-05-21T22:49:38.889Z,16.78
2019-05-21T22:54:43.126Z,16.72
2019-05-21T22:59:47.854Z,16.48
2019-05-21T23:04:53.069Z,16.56
2019-05-21T23:09:58.613Z,16.52
2019-05-21T23:15:03.030Z,16.66
2019-05-21T23:20:08.125Z,16.55
2019-05-21T23:25:12.912Z,16.44
2019-05-21T23:30:17.587Z,16.32
2019-05-21T23:35:21.974Z,16.30
2019-05-21T23:40:26.427Z,16.35
2019-05-21T23:45:30.750Z,16.09
2019-05-21T23:50:35.014Z,16.22
2019-05-21T23:55:39.368Z,16.17
